sensor_id;sensor_type;location;lat;lon;timestamp;temperature;humidity
80234;DHT22;69542;42.138;24.742;2023-04-25T10:28:14;24.60;40.90
80234;DHT22;69542;42.138;24.742;2023-04-25T10:31:06;25.10;39.40
80234;DHT22;69542;42.138;24.742;2023-04-25T10:33:43;25.00;39.30
80234;DHT22;69542;42.138;24.742;2023-04-25T10:36:22;25.00;39.40
80234;DHT22;69542;42.138;24.742;2023-04-25T10:39:05;24.90;39.40
80234;DHT22;69542;42.138;24.742;2023-04-25T10:42:02;24.90;39.60
80234;DHT22;69542;42.138;24.742;2023-04-25T10:44:29;24.80;39.60
80234;DHT22;69542;42.138;24.742;2023-04-25T10:46:56;24.80;39.60
80234;DHT22;69542;42.138;24.742;2023-04-25T10:49:30;24.80;39.70
80234;DHT22;69542;42.138;24.742;2023-04-25T10:52:25;24.80;39.70
80234;DHT22;69542;42.138;24.742;2023-04-25T10:54:54;24.70;39.80
80234;DHT22;69542;42.138;24.742;2023-04-25T10:57:46;24.70;39.80
80234;DHT22;69542;42.138;24.742;2023-04-25T11:00:18;24.60;39.90
80234;DHT22;69542;42.138;24.742;2023-04-25T11:02:46;24.50;40.00
80234;DHT22;69542;42.138;24.742;2023-04-25T11:05:33;24.50;40.10
80234;DHT22;69542;42.138;24.742;2023-04-25T11:08:00;24.40;40.10
80234;DHT22;69542;42.138;24.742;2023-04-25T11:10:27;24.40;40.20
80234;DHT22;69542;42.138;24.742;2023-04-25T11:12:53;24.40;40.20
80234;DHT22;69542;42.138;24.742;2023-04-25T11:15:19;24.40;40.30
80234;DHT22;69542;42.138;24.742;2023-04-25T11:17:44;24.40;40.30
80234;DHT22;69542;42.138;24.742;2023-04-25T11:20:12;24.40;40.20
80234;DHT22;69542;42.138;24.742;2023-04-25T11:22:40;24.40;40.20
80234;DHT22;69542;42.138;24.742;2023-04-25T11:25:10;24.40;40.30
80234;DHT22;69542;42.138;24.742;2023-04-25T11:27:56;24.40;40.20
80234;DHT22;69542;42.138;24.742;2023-04-25T11:30:24;24.40;40.20
80234;DHT22;69542;42.138;24.742;2023-04-25T11:32:50;24.40;40.20
80234;DHT22;69542;42.138;24.742;2023-04-25T11:35:18;24.40;40.20
80234;DHT22;69542;42.138;24.742;2023-04-25T11:37:45;24.30;40.30
80234;DHT22;69542;42.138;24.742;2023-04-25T11:40:11;24.30;40.10
80234;DHT22;69542;42.138;24.742;2023-04-25T11:42:38;24.30;40.10
80234;DHT22;69542;42.138;24.742;2023-04-25T11:45:05;24.30;40.10
80234;DHT22;69542;42.138;24.742;2023-04-25T11:47:31;24.40;40.30
80234;DHT22;69542;42.138;24.742;2023-04-25T11:50:02;24.30;40.20
80234;DHT22;69542;42.138;24.742;2023-04-25T11:52:42;24.40;40.30
80234;DHT22;69542;42.138;24.742;2023-04-25T11:55:19;24.40;40.20
80234;DHT22;69542;42.138;24.742;2023-04-25T11:57:47;24.30;40.10
80234;DHT22;69542;42.138;24.742;2023-04-25T12:00:19;24.40;40.20
80234;DHT22;69542;42.138;24.742;2023-04-25T12:02:56;24.40;40.10
80234;DHT22;69542;42.138;24.742;2023-04-25T12:05:32;24.40;40.10
80234;DHT22;69542;42.138;24.742;2023-04-25T12:08:09;24.30;40.00
80234;DHT22;69542;42.138;24.742;2023-04-25T12:10:38;24.40;40.00
80234;DHT22;69542;42.138;24.742;2023-04-25T12:13:21;24.40;40.10
80234;DHT22;69542;42.138;24.742;2023-04-25T12:15:48;24.40;40.00
80234;DHT22;69542;42.138;24.742;2023-04-25T12:18:14;24.40;40.10
80234;DHT22;69542;42.138;24.742;2023-04-25T12:20:41;24.40;40.10
80234;DHT22;69542;42.138;24.742;2023-04-25T12:23:08;24.40;40.10
80234;DHT22;69542;42.138;24.742;2023-04-25T12:25:44;24.40;40.10
80234;DHT22;69542;42.138;24.742;2023-04-25T12:28:17;24.40;40.00
80234;DHT22;69542;42.138;24.742;2023-04-25T12:30:59;24.40;40.10
80234;DHT22;69542;42.138;24.742;2023-04-25T12:33:26;24.40;40.40
80234;DHT22;69542;42.138;24.742;2023-04-25T12:35:53;24.40;40.50
80234;DHT22;69542;42.138;24.742;2023-04-25T12:38:26;24.30;40.50
80234;DHT22;69542;42.138;24.742;2023-04-25T12:40:53;24.40;40.60
80234;DHT22;69542;42.138;24.742;2023-04-25T12:43:19;24.30;40.70
80234;DHT22;69542;42.138;24.742;2023-04-25T12:45:51;24.30;40.60
80234;DHT22;69542;42.138;24.742;2023-04-25T12:48:18;24.30;40.60
80234;DHT22;69542;42.138;24.742;2023-04-25T12:50:44;24.40;40.70
80234;DHT22;69542;42.138;24.742;2023-04-25T12:53:10;24.40;40.80
80234;DHT22;69542;42.138;24.742;2023-04-25T12:55:37;24.30;40.80
80234;DHT22;69542;42.138;24.742;2023-04-25T12:58:03;24.40;40.80
80234;DHT22;69542;42.138;24.742;2023-04-25T13:00:29;24.40;40.80
80234;DHT22;69542;42.138;24.742;2023-04-25T13:02:56;24.40;40.60
80234;DHT22;69542;42.138;24.742;2023-04-25T13:05:21;24.40;40.60
80234;DHT22;69542;42.138;24.742;2023-04-25T13:07:47;24.40;40.50
80234;DHT22;69542;42.138;24.742;2023-04-25T13:10:13;24.40;40.50
80234;DHT22;69542;42.138;24.742;2023-04-25T13:12:39;24.40;40.50
80234;DHT22;69542;42.138;24.742;2023-04-25T13:15:05;24.40;40.60
80234;DHT22;69542;42.138;24.742;2023-04-25T13:17:32;24.40;41.00
80234;DHT22;69542;42.138;24.742;2023-04-25T13:19:57;24.50;40.90
80234;DHT22;69542;42.138;24.742;2023-04-25T13:22:23;24.50;40.80
80234;DHT22;69542;42.138;24.742;2023-04-25T13:24:49;24.50;40.70
80234;DHT22;69542;42.138;24.742;2023-04-25T13:27:14;24.50;40.70
80234;DHT22;69542;42.138;24.742;2023-04-25T13:29:40;24.50;40.50
80234;DHT22;69542;42.138;24.742;2023-04-25T13:32:07;24.50;40.20
80234;DHT22;69542;42.138;24.742;2023-04-25T13:34:33;24.50;40.00
80234;DHT22;69542;42.138;24.742;2023-04-25T13:36:59;24.60;39.80
80234;DHT22;69542;42.138;24.742;2023-04-25T13:39:25;24.60;39.60
80234;DHT22;69542;42.138;24.742;2023-04-25T13:41:51;24.60;39.20
80234;DHT22;69542;42.138;24.742;2023-04-25T13:44:17;24.60;38.80
80234;DHT22;69542;42.138;24.742;2023-04-25T13:46:42;24.60;38.40
80234;DHT22;69542;42.138;24.742;2023-04-25T13:49:09;24.60;38.00
80234;DHT22;69542;42.138;24.742;2023-04-25T13:51:34;24.60;38.00
80234;DHT22;69542;42.138;24.742;2023-04-25T13:54:00;24.60;37.90
80234;DHT22;69542;42.138;24.742;2023-04-25T13:56:26;24.50;37.70
80234;DHT22;69542;42.138;24.742;2023-04-25T13:58:52;24.60;37.90
80234;DHT22;69542;42.138;24.742;2023-04-25T14:01:18;24.50;37.90
80234;DHT22;69542;42.138;24.742;2023-04-25T14:03:44;24.50;37.90
80234;DHT22;69542;42.138;24.742;2023-04-25T14:06:11;24.50;37.90
80234;DHT22;69542;42.138;24.742;2023-04-25T14:08:38;24.50;38.00
80234;DHT22;69542;42.138;24.742;2023-04-25T14:11:04;24.50;38.00
80234;DHT22;69542;42.138;24.742;2023-04-25T14:13:30;24.50;38.00
80234;DHT22;69542;42.138;24.742;2023-04-25T14:15:56;24.40;38.00
80234;DHT22;69542;42.138;24.742;2023-04-25T14:18:21;24.40;38.10
80234;DHT22;69542;42.138;24.742;2023-04-25T14:20:48;24.40;38.20
80234;DHT22;69542;42.138;24.742;2023-04-25T14:23:13;24.50;38.20
80234;DHT22;69542;42.138;24.742;2023-04-25T14:25:40;24.50;38.30
80234;DHT22;69542;42.138;24.742;2023-04-25T14:28:07;24.50;38.30
80234;DHT22;69542;42.138;24.742;2023-04-25T14:30:33;24.50;38.20
80234;DHT22;69542;42.138;24.742;2023-04-25T14:32:58;24.50;38.10
80234;DHT22;69542;42.138;24.742;2023-04-25T14:35:24;24.50;38.30
80234;DHT22;69542;42.138;24.742;2023-04-25T14:37:50;24.60;38.20
80234;DHT22;69542;42.138;24.742;2023-04-25T14:40:16;24.60;38.20
80234;DHT22;69542;42.138;24.742;2023-04-25T14:42:42;24.60;38.10
80234;DHT22;69542;42.138;24.742;2023-04-25T14:45:08;24.60;38.00
80234;DHT22;69542;42.138;24.742;2023-04-25T14:47:35;24.60;38.30
80234;DHT22;69542;42.138;24.742;2023-04-25T14:50:02;24.70;38.50
80234;DHT22;69542;42.138;24.742;2023-04-25T14:52:28;24.70;38.40
80234;DHT22;69542;42.138;24.742;2023-04-25T14:54:53;24.70;38.20
80234;DHT22;69542;42.138;24.742;2023-04-25T14:57:19;24.70;38.30
80234;DHT22;69542;42.138;24.742;2023-04-25T14:59:45;24.70;38.10
80234;DHT22;69542;42.138;24.742;2023-04-25T15:02:11;24.80;37.70
80234;DHT22;69542;42.138;24.742;2023-04-25T15:04:37;24.80;37.50
80234;DHT22;69542;42.138;24.742;2023-04-25T15:07:03;24.80;37.10
80234;DHT22;69542;42.138;24.742;2023-04-25T15:09:29;24.80;37.00
80234;DHT22;69542;42.138;24.742;2023-04-25T15:11:55;24.80;36.90
80234;DHT22;69542;42.138;24.742;2023-04-25T15:14:21;24.80;36.70
80234;DHT22;69542;42.138;24.742;2023-04-25T15:16:47;24.80;36.40
80234;DHT22;69542;42.138;24.742;2023-04-25T15:19:12;24.80;36.40
80234;DHT22;69542;42.138;24.742;2023-04-25T15:21:39;24.80;36.30
80234;DHT22;69542;42.138;24.742;2023-04-25T15:24:05;24.90;36.20
80234;DHT22;69542;42.138;24.742;2023-04-25T15:26:30;24.80;36.10
80234;DHT22;69542;42.138;24.742;2023-04-25T15:28:56;24.80;36.10
80234;DHT22;69542;42.138;24.742;2023-04-25T15:31:22;24.70;35.80
80234;DHT22;69542;42.138;24.742;2023-04-25T15:33:48;24.80;36.00
80234;DHT22;69542;42.138;24.742;2023-04-25T15:36:13;24.80;35.70
80234;DHT22;69542;42.138;24.742;2023-04-25T15:38:41;24.80;35.70
80234;DHT22;69542;42.138;24.742;2023-04-25T15:41:07;24.80;35.70
80234;DHT22;69542;42.138;24.742;2023-04-25T15:43:33;24.80;35.70
80234;DHT22;69542;42.138;24.742;2023-04-25T15:46:03;24.80;35.50
80234;DHT22;69542;42.138;24.742;2023-04-25T15:48:29;24.80;35.40
80234;DHT22;69542;42.138;24.742;2023-04-25T15:50:54;24.90;35.40
80234;DHT22;69542;42.138;24.742;2023-04-25T15:53:20;24.80;35.30
80234;DHT22;69542;42.138;24.742;2023-04-25T15:55:46;24.80;35.30
80234;DHT22;69542;42.138;24.742;2023-04-25T15:58:12;24.80;35.20
80234;DHT22;69542;42.138;24.742;2023-04-25T16:00:37;24.80;35.10
80234;DHT22;69542;42.138;24.742;2023-04-25T16:03:04;24.80;35.10
80234;DHT22;69542;42.138;24.742;2023-04-25T16:05:30;24.80;35.20
80234;DHT22;69542;42.138;24.742;2023-04-25T16:07:56;24.80;35.00
80234;DHT22;69542;42.138;24.742;2023-04-25T16:10:22;24.80;34.80
80234;DHT22;69542;42.138;24.742;2023-04-25T16:12:48;24.70;34.70
80234;DHT22;69542;42.138;24.742;2023-04-25T16:15:15;24.80;34.60
80234;DHT22;69542;42.138;24.742;2023-04-25T16:17:41;24.80;34.70
80234;DHT22;69542;42.138;24.742;2023-04-25T16:20:07;24.80;34.60
80234;DHT22;69542;42.138;24.742;2023-04-25T16:22:41;24.80;34.30
80234;DHT22;69542;42.138;24.742;2023-04-25T16:25:07;24.70;34.20
80234;DHT22;69542;42.138;24.742;2023-04-25T16:27:33;24.70;34.10
80234;DHT22;69542;42.138;24.742;2023-04-25T16:29:59;24.70;34.10
80234;DHT22;69542;42.138;24.742;2023-04-25T16:32:25;24.70;34.10
80234;DHT22;69542;42.138;24.742;2023-04-25T16:34:51;24.70;33.80
80234;DHT22;69542;42.138;24.742;2023-04-25T16:37:17;24.70;33.80
80234;DHT22;69542;42.138;24.742;2023-04-25T16:39:43;24.70;33.70
80234;DHT22;69542;42.138;24.742;2023-04-25T16:42:09;24.70;33.80
80234;DHT22;69542;42.138;24.742;2023-04-25T16:44:34;24.70;34.00
80234;DHT22;69542;42.138;24.742;2023-04-25T16:47:01;24.70;34.00
80234;DHT22;69542;42.138;24.742;2023-04-25T16:49:27;24.70;34.10
80234;DHT22;69542;42.138;24.742;2023-04-25T16:51:52;24.70;34.30
80234;DHT22;69542;42.138;24.742;2023-04-25T16:54:18;24.70;34.30
80234;DHT22;69542;42.138;24.742;2023-04-25T16:56:44;24.60;34.40
80234;DHT22;69542;42.138;24.742;2023-04-25T16:59:09;24.60;34.60
80234;DHT22;69542;42.138;24.742;2023-04-25T17:01:35;24.60;34.60
80234;DHT22;69542;42.138;24.742;2023-04-25T17:04:01;24.60;34.60
80234;DHT22;69542;42.138;24.742;2023-04-25T17:06:27;24.60;34.60
80234;DHT22;69542;42.138;24.742;2023-04-25T17:08:54;24.70;34.70
80234;DHT22;69542;42.138;24.742;2023-04-25T17:11:19;24.70;34.80
80234;DHT22;69542;42.138;24.742;2023-04-25T17:13:45;24.70;34.70
80234;DHT22;69542;42.138;24.742;2023-04-25T17:16:11;24.60;34.80
80234;DHT22;69542;42.138;24.742;2023-04-25T17:18:41;24.70;34.80
80234;DHT22;69542;42.138;24.742;2023-04-25T17:21:06;24.60;34.90
80234;DHT22;69542;42.138;24.742;2023-04-25T17:23:33;24.60;34.90
80234;DHT22;69542;42.138;24.742;2023-04-25T17:25:58;24.60;35.00
80234;DHT22;69542;42.138;24.742;2023-04-25T17:28:24;24.60;35.30
80234;DHT22;69542;42.138;24.742;2023-04-25T17:30:50;24.60;35.00
80234;DHT22;69542;42.138;24.742;2023-04-25T17:33:16;24.60;35.00
80234;DHT22;69542;42.138;24.742;2023-04-25T17:35:41;24.60;35.10
80234;DHT22;69542;42.138;24.742;2023-04-25T17:38:07;24.60;35.10
80234;DHT22;69542;42.138;24.742;2023-04-25T17:40:33;24.60;35.10
80234;DHT22;69542;42.138;24.742;2023-04-25T17:42:59;24.60;35.20
80234;DHT22;69542;42.138;24.742;2023-04-25T17:45:25;24.60;35.20
80234;DHT22;69542;42.138;24.742;2023-04-25T17:47:51;24.60;35.20
80234;DHT22;69542;42.138;24.742;2023-04-25T17:50:16;24.50;35.20
80234;DHT22;69542;42.138;24.742;2023-04-25T17:52:43;24.50;35.30
80234;DHT22;69542;42.138;24.742;2023-04-25T17:55:10;24.60;35.40
80234;DHT22;69542;42.138;24.742;2023-04-25T17:57:36;24.50;35.40
80234;DHT22;69542;42.138;24.742;2023-04-25T18:00:02;24.50;35.30
80234;DHT22;69542;42.138;24.742;2023-04-25T18:02:28;24.50;35.30
80234;DHT22;69542;42.138;24.742;2023-04-25T18:04:54;24.60;35.40
80234;DHT22;69542;42.138;24.742;2023-04-25T18:07:20;24.50;35.30
80234;DHT22;69542;42.138;24.742;2023-04-25T18:09:46;24.50;35.40
80234;DHT22;69542;42.138;24.742;2023-04-25T18:12:12;24.50;35.40
80234;DHT22;69542;42.138;24.742;2023-04-25T18:14:39;24.50;35.40
80234;DHT22;69542;42.138;24.742;2023-04-25T18:17:05;24.50;35.40
80234;DHT22;69542;42.138;24.742;2023-04-25T18:19:33;24.50;35.40
80234;DHT22;69542;42.138;24.742;2023-04-25T18:21:59;24.50;35.40
80234;DHT22;69542;42.138;24.742;2023-04-25T18:24:26;24.50;35.50
80234;DHT22;69542;42.138;24.742;2023-04-25T18:26:52;24.50;35.50
80234;DHT22;69542;42.138;24.742;2023-04-25T18:29:20;24.50;35.60
80234;DHT22;69542;42.138;24.742;2023-04-25T18:31:46;24.50;35.50
80234;DHT22;69542;42.138;24.742;2023-04-25T18:34:12;24.50;35.60
80234;DHT22;69542;42.138;24.742;2023-04-25T18:36:39;24.50;35.60
80234;DHT22;69542;42.138;24.742;2023-04-25T18:39:05;24.50;36.60
80234;DHT22;69542;42.138;24.742;2023-04-25T18:41:35;24.50;35.60
80234;DHT22;69542;42.138;24.742;2023-04-25T18:44:02;24.50;35.60
80234;DHT22;69542;42.138;24.742;2023-04-25T18:46:30;24.50;35.60
80234;DHT22;69542;42.138;24.742;2023-04-25T18:48:56;24.50;35.70
80234;DHT22;69542;42.138;24.742;2023-04-25T18:51:23;24.50;35.80
80234;DHT22;69542;42.138;24.742;2023-04-25T18:53:54;24.50;35.70
80234;DHT22;69542;42.138;24.742;2023-04-25T18:56:20;24.50;35.80
80234;DHT22;69542;42.138;24.742;2023-04-25T18:58:47;24.40;35.70
80234;DHT22;69542;42.138;24.742;2023-04-25T19:01:14;24.50;36.80
80234;DHT22;69542;42.138;24.742;2023-04-25T19:03:40;24.40;35.70
80234;DHT22;69542;42.138;24.742;2023-04-25T19:06:05;24.40;35.70
80234;DHT22;69542;42.138;24.742;2023-04-25T19:08:31;24.40;35.90
80234;DHT22;69542;42.138;24.742;2023-04-25T19:10:57;24.40;35.80
80234;DHT22;69542;42.138;24.742;2023-04-25T19:13:22;24.40;35.80
80234;DHT22;69542;42.138;24.742;2023-04-25T19:15:48;24.40;36.00
80234;DHT22;69542;42.138;24.742;2023-04-25T19:18:14;24.40;35.80
80234;DHT22;69542;42.138;24.742;2023-04-25T19:20:40;24.40;35.80
80234;DHT22;69542;42.138;24.742;2023-04-25T19:23:05;24.40;35.80
80234;DHT22;69542;42.138;24.742;2023-04-25T19:25:32;24.40;35.80
80234;DHT22;69542;42.138;24.742;2023-04-25T19:27:58;24.40;35.80
80234;DHT22;69542;42.138;24.742;2023-04-25T19:30:25;24.40;35.80
80234;DHT22;69542;42.138;24.742;2023-04-25T19:32:53;24.40;35.80
80234;DHT22;69542;42.138;24.742;2023-04-25T19:35:21;24.40;35.90
80234;DHT22;69542;42.138;24.742;2023-04-25T19:37:46;24.40;35.80
80234;DHT22;69542;42.138;24.742;2023-04-25T19:40:17;24.40;35.80
80234;DHT22;69542;42.138;24.742;2023-04-25T19:42:44;24.40;35.90
80234;DHT22;69542;42.138;24.742;2023-04-25T19:45:10;24.40;35.90
80234;DHT22;69542;42.138;24.742;2023-04-25T19:47:36;24.40;35.90
80234;DHT22;69542;42.138;24.742;2023-04-25T19:50:05;24.40;35.90
80234;DHT22;69542;42.138;24.742;2023-04-25T19:52:36;24.40;35.80
80234;DHT22;69542;42.138;24.742;2023-04-25T19:55:02;24.40;35.90
80234;DHT22;69542;42.138;24.742;2023-04-25T19:57:33;24.40;35.80
80234;DHT22;69542;42.138;24.742;2023-04-25T20:00:06;24.30;35.80
80234;DHT22;69542;42.138;24.742;2023-04-25T20:02:33;24.30;35.80
80234;DHT22;69542;42.138;24.742;2023-04-25T20:04:59;24.30;35.80
80234;DHT22;69542;42.138;24.742;2023-04-25T20:07:26;24.30;35.90
80234;DHT22;69542;42.138;24.742;2023-04-25T20:09:52;24.30;35.80
80234;DHT22;69542;42.138;24.742;2023-04-25T20:12:18;24.30;35.80
80234;DHT22;69542;42.138;24.742;2023-04-25T20:14:44;24.30;35.90
80234;DHT22;69542;42.138;24.742;2023-04-25T20:17:10;24.30;35.90
80234;DHT22;69542;42.138;24.742;2023-04-25T20:19:36;24.30;35.80
80234;DHT22;69542;42.138;24.742;2023-04-25T20:22:03;24.30;35.80
80234;DHT22;69542;42.138;24.742;2023-04-25T20:24:29;24.30;35.80
80234;DHT22;69542;42.138;24.742;2023-04-25T20:26:54;24.30;35.90
80234;DHT22;69542;42.138;24.742;2023-04-25T20:29:25;24.30;35.80
80234;DHT22;69542;42.138;24.742;2023-04-25T20:31:51;24.30;35.80
80234;DHT22;69542;42.138;24.742;2023-04-25T20:34:18;24.30;35.90
80234;DHT22;69542;42.138;24.742;2023-04-25T20:36:44;24.30;35.80
80234;DHT22;69542;42.138;24.742;2023-04-25T20:39:10;24.30;35.90
80234;DHT22;69542;42.138;24.742;2023-04-25T20:41:35;24.30;35.90
80234;DHT22;69542;42.138;24.742;2023-04-25T20:44:02;24.30;35.90
80234;DHT22;69542;42.138;24.742;2023-04-25T20:46:28;24.30;35.90
80234;DHT22;69542;42.138;24.742;2023-04-25T20:48:55;24.30;35.90
80234;DHT22;69542;42.138;24.742;2023-04-25T20:51:21;24.30;35.90
80234;DHT22;69542;42.138;24.742;2023-04-25T20:53:47;24.30;35.80
80234;DHT22;69542;42.138;24.742;2023-04-25T20:56:13;24.30;35.90
80234;DHT22;69542;42.138;24.742;2023-04-25T20:58:39;24.30;35.80
80234;DHT22;69542;42.138;24.742;2023-04-25T21:01:05;24.30;35.90
80234;DHT22;69542;42.138;24.742;2023-04-25T21:03:32;24.30;35.80
80234;DHT22;69542;42.138;24.742;2023-04-25T21:05:59;24.30;35.80
80234;DHT22;69542;42.138;24.742;2023-04-25T21:08:25;24.30;35.80
80234;DHT22;69542;42.138;24.742;2023-04-25T21:10:52;24.30;35.80
80234;DHT22;69542;42.138;24.742;2023-04-25T21:13:17;24.30;35.80
80234;DHT22;69542;42.138;24.742;2023-04-25T21:15:43;24.30;35.80
80234;DHT22;69542;42.138;24.742;2023-04-25T21:18:09;24.30;35.80
80234;DHT22;69542;42.138;24.742;2023-04-25T21:20:35;24.30;35.80
80234;DHT22;69542;42.138;24.742;2023-04-25T21:23:00;24.30;35.80
80234;DHT22;69542;42.138;24.742;2023-04-25T21:25:26;24.30;35.80
80234;DHT22;69542;42.138;24.742;2023-04-25T21:27:58;24.30;35.80
80234;DHT22;69542;42.138;24.742;2023-04-25T21:30:25;24.30;35.80
80234;DHT22;69542;42.138;24.742;2023-04-25T21:32:51;24.30;35.80
80234;DHT22;69542;42.138;24.742;2023-04-25T21:35:19;24.30;35.80
80234;DHT22;69542;42.138;24.742;2023-04-25T21:37:45;24.30;35.80
80234;DHT22;69542;42.138;24.742;2023-04-25T21:40:12;24.30;35.80
80234;DHT22;69542;42.138;24.742;2023-04-25T21:42:39;24.30;35.80
80234;DHT22;69542;42.138;24.742;2023-04-25T21:45:06;24.30;35.80
80234;DHT22;69542;42.138;24.742;2023-04-25T21:47:32;24.30;35.80
80234;DHT22;69542;42.138;24.742;2023-04-25T21:49:59;24.30;35.80
80234;DHT22;69542;42.138;24.742;2023-04-25T21:52:25;24.30;35.80
80234;DHT22;69542;42.138;24.742;2023-04-25T21:54:51;24.30;35.80
80234;DHT22;69542;42.138;24.742;2023-04-25T21:57:18;24.30;35.80
80234;DHT22;69542;42.138;24.742;2023-04-25T21:59:43;24.30;35.80
80234;DHT22;69542;42.138;24.742;2023-04-25T22:02:09;24.30;35.80
80234;DHT22;69542;42.138;24.742;2023-04-25T22:04:35;24.30;35.80
80234;DHT22;69542;42.138;24.742;2023-04-25T22:07:01;24.30;35.90
80234;DHT22;69542;42.138;24.742;2023-04-25T22:09:27;24.20;35.70
80234;DHT22;69542;42.138;24.742;2023-04-25T22:11:53;24.20;35.70
80234;DHT22;69542;42.138;24.742;2023-04-25T22:14:19;24.20;35.80
80234;DHT22;69542;42.138;24.742;2023-04-25T22:16:46;24.20;35.70
80234;DHT22;69542;42.138;24.742;2023-04-25T22:19:12;24.30;35.90
80234;DHT22;69542;42.138;24.742;2023-04-25T22:21:38;24.30;35.80
80234;DHT22;69542;42.138;24.742;2023-04-25T22:24:04;24.20;35.90
80234;DHT22;69542;42.138;24.742;2023-04-25T22:26:31;24.20;35.90
80234;DHT22;69542;42.138;24.742;2023-04-25T22:28:58;24.30;35.90
80234;DHT22;69542;42.138;24.742;2023-04-25T22:31:23;24.20;35.90
80234;DHT22;69542;42.138;24.742;2023-04-25T22:33:49;24.30;35.90
80234;DHT22;69542;42.138;24.742;2023-04-25T22:36:15;24.20;35.90
80234;DHT22;69542;42.138;24.742;2023-04-25T22:38:42;24.30;35.90
80234;DHT22;69542;42.138;24.742;2023-04-25T22:41:08;24.20;35.90
80234;DHT22;69542;42.138;24.742;2023-04-25T22:43:36;24.20;35.90
80234;DHT22;69542;42.138;24.742;2023-04-25T22:46:05;24.20;35.90
80234;DHT22;69542;42.138;24.742;2023-04-25T22:48:30;24.20;35.90
80234;DHT22;69542;42.138;24.742;2023-04-25T22:51:05;24.20;35.90
80234;DHT22;69542;42.138;24.742;2023-04-25T22:53:30;24.20;35.90
80234;DHT22;69542;42.138;24.742;2023-04-25T22:55:58;24.20;36.00
80234;DHT22;69542;42.138;24.742;2023-04-25T22:58:24;24.20;36.00
80234;DHT22;69542;42.138;24.742;2023-04-25T23:00:50;24.20;36.00
80234;DHT22;69542;42.138;24.742;2023-04-25T23:03:17;24.20;36.00
80234;DHT22;69542;42.138;24.742;2023-04-25T23:05:44;24.20;36.00
80234;DHT22;69542;42.138;24.742;2023-04-25T23:08:10;24.20;36.00
80234;DHT22;69542;42.138;24.742;2023-04-25T23:10:36;24.20;36.00
80234;DHT22;69542;42.138;24.742;2023-04-25T23:13:02;24.20;36.00
80234;DHT22;69542;42.138;24.742;2023-04-25T23:15:28;24.20;36.00
80234;DHT22;69542;42.138;24.742;2023-04-25T23:17:56;24.20;36.00
80234;DHT22;69542;42.138;24.742;2023-04-25T23:20:22;24.20;36.00
80234;DHT22;69542;42.138;24.742;2023-04-25T23:22:49;24.20;36.00
80234;DHT22;69542;42.138;24.742;2023-04-25T23:25:15;24.20;36.00
80234;DHT22;69542;42.138;24.742;2023-04-25T23:27:41;24.20;36.00
80234;DHT22;69542;42.138;24.742;2023-04-25T23:30:08;24.20;36.00
80234;DHT22;69542;42.138;24.742;2023-04-25T23:32:34;24.20;36.00
80234;DHT22;69542;42.138;24.742;2023-04-25T23:35:00;24.20;36.00
80234;DHT22;69542;42.138;24.742;2023-04-25T23:37:26;24.20;36.10
80234;DHT22;69542;42.138;24.742;2023-04-25T23:39:52;24.20;36.00
80234;DHT22;69542;42.138;24.742;2023-04-25T23:42:18;24.20;36.10
80234;DHT22;69542;42.138;24.742;2023-04-25T23:44:43;24.20;36.00
80234;DHT22;69542;42.138;24.742;2023-04-25T23:47:09;24.20;36.00
80234;DHT22;69542;42.138;24.742;2023-04-25T23:49:37;24.20;36.10
80234;DHT22;69542;42.138;24.742;2023-04-25T23:52:03;24.20;36.00
80234;DHT22;69542;42.138;24.742;2023-04-25T23:54:29;24.20;36.00
80234;DHT22;69542;42.138;24.742;2023-04-25T23:56:55;24.20;36.10
80234;DHT22;69542;42.138;24.742;2023-04-25T23:59:20;24.20;36.00
